createdAt,value
2018-09-29T00:00:10.428Z,101875.00
2018-09-29T00:02:40.459Z,101874.00
2018-09-29T00:05:11.267Z,101871.00
2018-09-29T00:07:41.374Z,101880.00
2018-09-29T00:10:11.529Z,101883.00
2018-09-29T00:12:42.223Z,101885.00
2018-09-29T00:15:12.335Z,101879.00
2018-09-29T00:17:42.227Z,101896.00
2018-09-29T00:20:12.397Z,101893.00
2018-09-29T00:22:42.841Z,101888.00
2018-09-29T00:25:13.231Z,101894.00
2018-09-29T00:27:43.224Z,101890.00
2018-09-29T00:30:13.571Z,101896.00
2018-09-29T00:32:43.711Z,101904.00
2018-09-29T00:35:14.434Z,101904.00
2018-09-29T00:37:44.728Z,101895.00
2018-09-29T00:40:15.252Z,101892.00
2018-09-29T00:42:45.594Z,101894.00
2018-09-29T00:45:15.738Z,101898.00
2018-09-29T00:47:46.026Z,101900.00
2018-09-29T00:50:16.280Z,101887.00
2018-09-29T00:52:46.316Z,101888.00
2018-09-29T00:55:16.509Z,101879.00
2018-09-29T00:57:46.614Z,101892.00
2018-09-29T01:00:17.071Z,101878.00
2018-09-29T01:02:47.324Z,101886.00
2018-09-29T01:05:18.316Z,101883.00
2018-09-29T01:07:48.183Z,101880.00
2018-09-29T01:10:18.235Z,101878.00
2018-09-29T01:12:48.353Z,101879.00
2018-09-29T01:15:18.492Z,101871.00
2018-09-29T01:17:48.660Z,101871.00
2018-09-29T01:20:18.712Z,101860.00
2018-09-29T01:22:48.669Z,101856.00
2018-09-29T01:25:19.096Z,101869.00
2018-09-29T01:27:49.663Z,101864.00
2018-09-29T01:30:19.797Z,101855.00
2018-09-29T01:32:50.273Z,101852.00
2018-09-29T01:35:20.761Z,101851.00
2018-09-29T01:37:50.891Z,101845.00
2018-09-29T01:40:21.137Z,101840.00
2018-09-29T01:42:51.423Z,101832.00
2018-09-29T01:45:23.047Z,101836.00
2018-09-29T01:47:53.097Z,101833.00
2018-09-29T01:50:23.296Z,101823.00
2018-09-29T01:52:53.440Z,101829.00
2018-09-29T01:55:23.467Z,101820.00
2018-09-29T01:57:54.017Z,101819.00
2018-09-29T02:00:24.379Z,101820.00
2018-09-29T02:02:54.764Z,101815.00
2018-09-29T02:05:25.184Z,101827.00
2018-09-29T02:07:55.569Z,101809.00
2018-09-29T02:10:25.740Z,101812.00
2018-09-29T02:12:56.079Z,101815.00
2018-09-29T02:15:26.182Z,101807.00
2018-09-29T02:17:56.246Z,101804.00
2018-09-29T02:20:27.262Z,101805.00
2018-09-29T02:22:57.510Z,101809.00
2018-09-29T02:25:27.994Z,101809.00
2018-09-29T02:27:58.126Z,101798.00
2018-09-29T02:30:28.415Z,101797.00
2018-09-29T02:32:59.000Z,101803.00
2018-09-29T02:35:29.080Z,101793.00
2018-09-29T02:37:59.121Z,101800.00
2018-09-29T02:40:29.273Z,101799.00
2018-09-29T02:42:59.795Z,101797.00
2018-09-29T02:45:30.326Z,101787.00
2018-09-29T02:48:00.477Z,101782.00
2018-09-29T02:50:30.515Z,101793.00
2018-09-29T02:53:01.467Z,101781.00
2018-09-29T02:55:31.539Z,101783.00
2018-09-29T02:58:01.759Z,101785.00
2018-09-29T03:00:32.466Z,101780.00
2018-09-29T03:03:02.874Z,101773.00
2018-09-29T03:05:32.932Z,101776.00
2018-09-29T03:08:03.506Z,101759.00
2018-09-29T03:10:33.885Z,101758.00
2018-09-29T03:13:04.073Z,101763.00
2018-09-29T03:15:34.436Z,101768.00
2018-09-29T03:18:04.355Z,101761.00
2018-09-29T03:20:34.787Z,101756.00
2018-09-29T03:23:05.027Z,101755.00
2018-09-29T03:25:35.794Z,101747.00
2018-09-29T03:28:06.069Z,101748.00
2018-09-29T03:30:36.696Z,101740.00
2018-09-29T03:33:06.734Z,101748.00
2018-09-29T03:35:36.912Z,101742.00
2018-09-29T03:38:08.739Z,101741.00
2018-09-29T03:40:39.064Z,101739.00
2018-09-29T03:43:09.507Z,101738.00
2018-09-29T03:45:39.862Z,101738.00
2018-09-29T03:48:09.898Z,101729.00
2018-09-29T03:50:40.525Z,101728.00
2018-09-29T03:53:12.071Z,101720.00
2018-09-29T03:55:42.123Z,101722.00
2018-09-29T03:58:12.541Z,101716.00
2018-09-29T04:00:42.663Z,101714.00
2018-09-29T04:03:12.963Z,101727.00
2018-09-29T04:05:42.847Z,101720.00
2018-09-29T04:08:13.021Z,101716.00
2018-09-29T04:10:43.524Z,101708.00
2018-09-29T04:13:13.821Z,101713.00
2018-09-29T04:15:44.161Z,101713.00
2018-09-29T04:18:15.414Z,101717.00
2018-09-29T04:20:45.519Z,101706.00
2018-09-29T04:23:16.294Z,101711.00
2018-09-29T04:25:46.291Z,101712.00
2018-09-29T04:28:16.558Z,101707.00
2018-09-29T04:30:46.739Z,101707.00
2018-09-29T04:33:17.004Z,101702.00
2018-09-29T04:35:48.233Z,101699.00
2018-09-29T04:38:18.840Z,101705.00
2018-09-29T04:40:48.855Z,101705.00
2018-09-29T04:43:19.286Z,101705.00
2018-09-29T04:45:49.641Z,101693.00
2018-09-29T04:48:19.872Z,101707.00
2018-09-29T04:50:50.075Z,101702.00
2018-09-29T04:53:20.984Z,101690.00
2018-09-29T04:55:51.666Z,101693.00
2018-09-29T04:58:21.725Z,101688.00
2018-09-29T05:00:52.536Z,101693.00
2018-09-29T05:03:22.737Z,101680.00
2018-09-29T05:05:52.861Z,101679.00
2018-09-29T05:08:22.862Z,101662.00
2018-09-29T05:10:53.255Z,101683.00
2018-09-29T05:13:23.332Z,101678.00
2018-09-29T05:15:53.602Z,101677.00
2018-09-29T05:18:23.798Z,101684.00
2018-09-29T05:20:54.176Z,101685.00
2018-09-29T05:23:24.370Z,101675.00
2018-09-29T05:25:54.622Z,101684.00
2018-09-29T05:28:24.920Z,101682.00
2018-09-29T05:30:55.191Z,101675.00
2018-09-29T05:33:25.307Z,101677.00
2018-09-29T05:35:56.545Z,101675.00
2018-09-29T05:38:27.435Z,101680.00
2018-09-29T05:40:57.652Z,101677.00
2018-09-29T05:43:27.992Z,101678.00
2018-09-29T05:45:59.280Z,101682.00
2018-09-29T05:48:29.559Z,101676.00
2018-09-29T05:51:00.102Z,101682.00
2018-09-29T05:53:31.386Z,101670.00
2018-09-29T05:56:03.272Z,101670.00
2018-09-29T05:58:34.393Z,101678.00
2018-09-29T06:01:06.290Z,101665.00
2018-09-29T06:03:36.827Z,101678.00
2018-09-29T06:06:07.190Z,101673.00
2018-09-29T06:08:37.561Z,101678.00
2018-09-29T06:11:07.919Z,101671.00
2018-09-29T06:13:38.170Z,101667.00
2018-09-29T06:16:08.632Z,101667.00
2018-09-29T06:18:39.193Z,101673.00
2018-09-29T06:21:09.785Z,101663.00
2018-09-29T06:23:40.054Z,101656.00
2018-09-29T06:26:10.197Z,101665.00
2018-09-29T06:28:40.521Z,101661.00
2018-09-29T06:31:11.299Z,101661.00
2018-09-29T06:33:42.008Z,101665.00
2018-09-29T06:36:18.616Z,101656.00
2018-09-29T06:38:53.567Z,101655.00
2018-09-29T06:41:23.638Z,101660.00
2018-09-29T06:43:53.750Z,101655.00
2018-09-29T06:46:23.891Z,101652.00
2018-09-29T06:48:54.054Z,101642.00
2018-09-29T06:51:24.607Z,101643.00
2018-09-29T06:53:55.410Z,101647.00
2018-09-29T06:56:25.319Z,101646.00
2018-09-29T06:58:55.518Z,101646.00
2018-09-29T07:01:25.833Z,101674.00
2018-09-29T07:03:56.025Z,101654.00
2018-09-29T07:06:26.282Z,101658.00
2018-09-29T07:08:56.709Z,101649.00
2018-09-29T07:11:27.612Z,101645.00
2018-09-29T07:13:57.982Z,101653.00
2018-09-29T07:16:28.344Z,101641.00
2018-09-29T07:18:58.355Z,101660.00
2018-09-29T07:21:28.998Z,101656.00
2018-09-29T07:23:59.134Z,101665.00
2018-09-29T07:26:29.433Z,101656.00
2018-09-29T07:28:59.582Z,101660.00
2018-09-29T07:31:30.616Z,101656.00
2018-09-29T07:34:00.556Z,101664.00
2018-09-29T07:36:30.459Z,101654.00
2018-09-29T07:39:01.225Z,101659.00
2018-09-29T07:41:32.022Z,101635.00
2018-09-29T07:44:02.455Z,101653.00
2018-09-29T07:46:32.751Z,101657.00
2018-09-29T07:49:02.889Z,101650.00
2018-09-29T07:51:33.029Z,101640.00
2018-09-29T07:54:03.258Z,101648.00
2018-09-29T07:56:33.423Z,101636.00
2018-09-29T07:59:03.452Z,101644.00
2018-09-29T08:01:34.062Z,101639.00
2018-09-29T08:04:04.144Z,101627.00
2018-09-29T08:06:33.996Z,101639.00
2018-09-29T08:09:05.342Z,101633.00
2018-09-29T08:11:35.685Z,101630.00
2018-09-29T08:14:05.901Z,101626.00
2018-09-29T08:16:35.999Z,101627.00
2018-09-29T08:19:06.155Z,101616.00
2018-09-29T08:21:36.389Z,101627.00
2018-09-29T08:24:06.575Z,101608.00
2018-09-29T08:26:37.173Z,101609.00
2018-09-29T08:29:07.322Z,101607.00
2018-09-29T08:31:37.353Z,101621.00
2018-09-29T08:34:07.979Z,101616.00
2018-09-29T08:36:37.936Z,101607.00
2018-09-29T08:39:09.694Z,101615.00
2018-09-29T08:41:40.121Z,101620.00
2018-09-29T08:44:10.248Z,101601.00
2018-09-29T08:46:40.725Z,101606.00
2018-09-29T08:49:11.000Z,101598.00
2018-09-29T08:51:47.998Z,101597.00
2018-09-29T08:54:18.090Z,101594.00
2018-09-29T08:56:48.025Z,101589.00
2018-09-29T08:59:18.223Z,101587.00
2018-09-29T09:01:48.125Z,101585.00
2018-09-29T09:04:18.226Z,101575.00
2018-09-29T09:06:48.516Z,101572.00
2018-09-29T09:09:25.413Z,101576.00
2018-09-29T09:11:55.564Z,101563.00
2018-09-29T09:14:25.681Z,101567.00
2018-09-29T09:16:56.147Z,101562.00
2018-09-29T09:19:26.412Z,101545.00
2018-09-29T09:21:56.809Z,101549.00
2018-09-29T09:42:30.086Z,101523.00
2018-09-29T09:44:59.986Z,101531.00
2018-09-29T09:47:30.033Z,101521.00
2018-09-29T09:50:00.592Z,101519.00
2018-09-29T09:52:30.803Z,101514.00
2018-09-29T09:55:00.904Z,101500.00
2018-09-29T09:57:31.036Z,101507.00
2018-09-29T10:00:01.354Z,101497.00
2018-09-29T10:02:37.998Z,101499.00
2018-09-29T10:05:08.334Z,101496.00
2018-09-29T10:07:38.604Z,101499.00
2018-09-29T10:10:08.927Z,101497.00
2018-09-29T10:12:39.350Z,101500.00
2018-09-29T10:15:09.709Z,101498.00
2018-09-29T10:17:39.688Z,101495.00
2018-09-29T10:20:09.910Z,101500.00
2018-09-29T10:22:39.903Z,101500.00
2018-09-29T10:25:10.255Z,101493.00
2018-09-29T10:27:40.408Z,101502.00
2018-09-29T10:30:10.760Z,101491.00
2018-09-29T10:32:40.966Z,101497.00
2018-09-29T10:35:11.017Z,101490.00
2018-09-29T10:37:41.578Z,101484.00
2018-09-29T10:40:11.848Z,101493.00
2018-09-29T10:42:42.659Z,101490.00
2018-09-29T10:45:13.038Z,101499.00
2018-09-29T10:47:43.803Z,101482.00
2018-09-29T10:50:14.056Z,101494.00
2018-09-29T10:52:44.140Z,101476.00
2018-09-29T10:55:14.560Z,101487.00
2018-09-29T10:57:44.805Z,101479.00
2018-09-29T11:00:15.874Z,101476.00
2018-09-29T11:02:46.230Z,101474.00
2018-09-29T11:05:16.661Z,101465.00
2018-09-29T11:07:47.477Z,101456.00
2018-09-29T11:10:17.859Z,101452.00
2018-09-29T11:12:47.980Z,101452.00
2018-09-29T11:15:18.026Z,101448.00
2018-09-29T11:17:48.217Z,101449.00
2018-09-29T11:20:18.425Z,101435.00
2018-09-29T11:22:50.605Z,101439.00
2018-09-29T11:25:22.352Z,101432.00
2018-09-29T11:27:52.441Z,101426.00
2018-09-29T11:30:22.701Z,101427.00
2018-09-29T11:32:53.213Z,101421.00
2018-09-29T11:35:23.620Z,101418.00
2018-09-29T11:37:53.973Z,101422.00
2018-09-29T11:40:24.365Z,101413.00
2018-09-29T11:42:54.750Z,101403.00
2018-09-29T11:45:25.823Z,101413.00
2018-09-29T11:47:56.292Z,101413.00
2018-09-29T11:50:26.310Z,101408.00
2018-09-29T11:52:56.463Z,101391.00
2018-09-29T11:55:27.070Z,101403.00
2018-09-29T11:57:57.224Z,101394.00
2018-09-29T12:00:27.488Z,101394.00
2018-09-29T12:02:57.751Z,101397.00
2018-09-29T12:05:27.876Z,101386.00
2018-09-29T12:07:58.070Z,101373.00
2018-09-29T12:10:28.617Z,101379.00
2018-09-29T12:12:58.669Z,101379.00
2018-09-29T12:15:29.019Z,101369.00
2018-09-29T12:17:59.380Z,101377.00
2018-09-29T12:20:29.663Z,101369.00
2018-09-29T12:22:59.894Z,101370.00
2018-09-29T12:25:30.066Z,101367.00
2018-09-29T12:28:01.034Z,101366.00
2018-09-29T12:30:30.878Z,101351.00
2018-09-29T12:33:01.963Z,101350.00
2018-09-29T12:35:32.176Z,101365.00
2018-09-29T12:38:02.249Z,101347.00
2018-09-29T12:40:32.400Z,101345.00
2018-09-29T12:43:03.071Z,101345.00
2018-09-29T12:45:33.661Z,101329.00
2018-09-29T12:48:03.652Z,101324.00
2018-09-29T12:50:33.876Z,101320.00
2018-09-29T12:53:04.630Z,101319.00
2018-09-29T12:55:34.953Z,101313.00
2018-09-29T12:58:05.588Z,101301.00
2018-09-29T13:00:35.634Z,101294.00
2018-09-29T13:03:05.839Z,101300.00
2018-09-29T13:05:36.000Z,101298.00
2018-09-29T13:08:06.320Z,101291.00
2018-09-29T13:10:36.970Z,101284.00
2018-09-29T13:13:07.067Z,101278.00
2018-09-29T13:15:38.067Z,101271.00
2018-09-29T13:18:07.962Z,101267.00
2018-09-29T13:20:37.983Z,101259.00
2018-09-29T13:23:08.153Z,101266.00
2018-09-29T13:25:38.228Z,101261.00
2018-09-29T13:28:08.485Z,101252.00
2018-09-29T13:30:38.651Z,101229.00
2018-09-29T13:33:09.402Z,101253.00
2018-09-29T13:35:39.790Z,101252.00
2018-09-29T13:38:10.071Z,101252.00
2018-09-29T13:40:40.147Z,101247.00
2018-09-29T13:43:10.307Z,101235.00
2018-09-29T13:45:40.475Z,101235.00
2018-09-29T13:48:10.811Z,101237.00
2018-09-29T13:50:41.276Z,101230.00
2018-09-29T13:53:11.707Z,101224.00
2018-09-29T13:55:42.413Z,101222.00
2018-09-29T13:58:12.985Z,101210.00
2018-09-29T14:00:43.418Z,101209.00
2018-09-29T14:03:14.811Z,101202.00
2018-09-29T14:05:45.091Z,101204.00
2018-09-29T14:08:15.277Z,101208.00
2018-09-29T14:10:46.082Z,101201.00
2018-09-29T14:13:16.227Z,101197.00
2018-09-29T14:15:46.489Z,101193.00
2018-09-29T14:18:16.823Z,101182.00
2018-09-29T14:20:49.336Z,101173.00
2018-09-29T14:23:20.188Z,101166.00
2018-09-29T14:25:51.773Z,101168.00
2018-09-29T14:28:22.746Z,101159.00
2018-09-29T14:30:53.316Z,101164.00
2018-09-29T14:33:23.673Z,101156.00
2018-09-29T14:35:53.905Z,101153.00
2018-09-29T14:38:23.989Z,101146.00
2018-09-29T14:40:54.196Z,101136.00
2018-09-29T14:43:24.288Z,101125.00
2018-09-29T14:45:54.625Z,101134.00
2018-09-29T14:48:24.687Z,101135.00
2018-09-29T14:50:55.302Z,101122.00
2018-09-29T14:53:25.484Z,101122.00
2018-09-29T14:55:55.725Z,101122.00
2018-09-29T14:58:25.771Z,101112.00
2018-09-29T15:00:55.796Z,101104.00
2018-09-29T15:03:26.071Z,101105.00
2018-09-29T15:05:56.566Z,101099.00
2018-09-29T15:08:28.836Z,101084.00
2018-09-29T15:10:59.809Z,101088.00
2018-09-29T15:13:30.036Z,101084.00
2018-09-29T15:16:00.576Z,101080.00
2018-09-29T15:18:30.617Z,101078.00
2018-09-29T15:21:00.880Z,101079.00
2018-09-29T15:23:31.281Z,101075.00
2018-09-29T15:26:01.607Z,101077.00
2018-09-29T15:28:33.046Z,101076.00
2018-09-29T15:31:03.706Z,101080.00
2018-09-29T15:33:33.925Z,101067.00
2018-09-29T15:36:04.113Z,101070.00
2018-09-29T15:38:34.540Z,101072.00
2018-09-29T15:41:04.900Z,101065.00
2018-09-29T15:43:35.418Z,101053.00
2018-09-29T15:46:05.520Z,101057.00
2018-09-29T15:48:35.736Z,101056.00
2018-09-29T15:51:05.953Z,101055.00
2018-09-29T15:53:37.717Z,101058.00
2018-09-29T15:56:08.633Z,101053.00
2018-09-29T15:58:39.230Z,101045.00
2018-09-29T16:01:09.411Z,101043.00
2018-09-29T16:03:39.508Z,101052.00
2018-09-29T16:06:09.684Z,101056.00
2018-09-29T16:08:39.815Z,101061.00
2018-09-29T16:11:10.059Z,101057.00
2018-09-29T16:13:40.618Z,101058.00
2018-09-29T16:16:11.674Z,101055.00
2018-09-29T16:18:41.785Z,101057.00
2018-09-29T16:21:11.941Z,101067.00
2018-09-29T16:23:42.213Z,101059.00
2018-09-29T16:26:12.385Z,101051.00
2018-09-29T16:28:42.492Z,101057.00
2018-09-29T16:31:13.093Z,101053.00
2018-09-29T16:33:43.365Z,101052.00
2018-09-29T16:36:13.559Z,101042.00
2018-09-29T16:38:44.200Z,101045.00
2018-09-29T16:41:14.996Z,101029.00
2018-09-29T16:43:45.253Z,101042.00
2018-09-29T16:46:15.220Z,101042.00
2018-09-29T16:48:45.465Z,101041.00
2018-09-29T16:51:15.746Z,101044.00
2018-09-29T16:53:45.945Z,101036.00
2018-09-29T16:56:16.494Z,101027.00
2018-09-29T16:58:46.671Z,101032.00
2018-09-29T17:01:16.793Z,101028.00
2018-09-29T17:03:46.812Z,101041.00
2018-09-29T17:06:17.068Z,101032.00
2018-09-29T17:08:47.252Z,101028.00
2018-09-29T17:11:17.358Z,101027.00
2018-09-29T17:13:48.100Z,101033.00
2018-09-29T17:16:18.245Z,101025.00
2018-09-29T17:18:48.466Z,101030.00
2018-09-29T17:21:19.851Z,101028.00
2018-09-29T17:23:50.343Z,101029.00
2018-09-29T17:26:20.343Z,101029.00
2018-09-29T17:28:50.577Z,101026.00
2018-09-29T17:31:20.651Z,101031.00
2018-09-29T17:33:50.885Z,101027.00
2018-09-29T17:36:21.101Z,101020.00
2018-09-29T17:38:52.370Z,101033.00
2018-09-29T17:41:22.698Z,101031.00
2018-09-29T17:43:52.902Z,101023.00
2018-09-29T17:46:23.042Z,101025.00
2018-09-29T17:48:53.162Z,101027.00
2018-09-29T17:51:23.213Z,101026.00
2018-09-29T17:53:53.785Z,101024.00
2018-09-29T17:56:24.010Z,101015.00
2018-09-29T17:58:54.034Z,101012.00
2018-09-29T18:01:24.011Z,101012.00
2018-09-29T18:03:54.336Z,101010.00
2018-09-29T18:06:24.441Z,101004.00
2018-09-29T18:08:55.255Z,101008.00
2018-09-29T18:11:27.018Z,101009.00
2018-09-29T18:13:58.890Z,101004.00
2018-09-29T18:16:30.494Z,100991.00
2018-09-29T18:19:01.117Z,101003.00
2018-09-29T18:21:31.253Z,101001.00
2018-09-29T18:24:01.675Z,101004.00
2018-09-29T18:26:31.872Z,100994.00
2018-09-29T18:29:02.521Z,100992.00
2018-09-29T18:31:32.809Z,100993.00
2018-09-29T18:34:03.186Z,100998.00
2018-09-29T18:36:34.652Z,100998.00
2018-09-29T18:39:08.896Z,100985.00
2018-09-29T18:41:39.564Z,100997.00
2018-09-29T18:44:10.848Z,100988.00
2018-09-29T18:46:41.940Z,100990.00
2018-09-29T18:49:13.223Z,100985.00
2018-09-29T18:51:43.471Z,100983.00
2018-09-29T18:54:13.482Z,100981.00
2018-09-29T18:56:44.049Z,100975.00
2018-09-29T18:59:14.980Z,100974.00
2018-09-29T19:01:45.808Z,100978.00
2018-09-29T19:04:16.394Z,100948.00
2018-09-29T19:06:46.765Z,100972.00
2018-09-29T19:09:17.290Z,100966.00
2018-09-29T19:11:47.608Z,100969.00
2018-09-29T19:14:17.754Z,100967.00
2018-09-29T19:16:47.971Z,100961.00
2018-09-29T19:19:19.297Z,100960.00
2018-09-29T19:21:56.191Z,100950.00
2018-09-29T19:24:26.312Z,100956.00
2018-09-29T19:26:58.565Z,100950.00
2018-09-29T19:29:29.065Z,100953.00
2018-09-29T19:31:59.458Z,100949.00
2018-09-29T19:34:29.665Z,100945.00
2018-09-29T19:36:59.913Z,100947.00
2018-09-29T19:39:29.991Z,100947.00
2018-09-29T19:41:59.994Z,100942.00
2018-09-29T19:44:30.379Z,100940.00
2018-09-29T19:47:00.780Z,100930.00
2018-09-29T19:49:31.461Z,100934.00
2018-09-29T19:52:01.526Z,100939.00
2018-09-29T19:54:31.655Z,100935.00
2018-09-29T19:57:02.333Z,100928.00
2018-09-29T19:59:32.344Z,100929.00
2018-09-29T20:02:02.569Z,100922.00
2018-09-29T20:04:35.190Z,100924.00
2018-09-29T20:07:05.627Z,100924.00
2018-09-29T20:09:35.742Z,100916.00
2018-09-29T20:12:06.760Z,100912.00
2018-09-29T20:14:38.086Z,100911.00
2018-09-29T20:17:08.241Z,100907.00
2018-09-29T20:19:38.144Z,100915.00
2018-09-29T20:22:10.623Z,100924.00
2018-09-29T20:24:41.171Z,100912.00
2018-09-29T20:27:11.410Z,100907.00
2018-09-29T20:29:41.591Z,100905.00
2018-09-29T20:32:12.809Z,100903.00
2018-09-29T20:34:42.978Z,100905.00
2018-09-29T20:37:15.063Z,100907.00
2018-09-29T20:39:46.110Z,100903.00
2018-09-29T20:42:16.438Z,100899.00
2018-09-29T20:44:46.942Z,100890.00
2018-09-29T20:47:17.674Z,100888.00
2018-09-29T20:49:48.053Z,100885.00
2018-09-29T20:52:18.272Z,100884.00
2018-09-29T20:54:48.806Z,100875.00
2018-09-29T20:57:19.006Z,100862.00
2018-09-29T20:59:50.146Z,100871.00
2018-09-29T21:02:20.326Z,100859.00
2018-09-29T21:04:50.545Z,100857.00
2018-09-29T21:07:27.273Z,100863.00
2018-09-29T21:09:57.593Z,100857.00
2018-09-29T21:12:27.860Z,100864.00
2018-09-29T21:14:58.031Z,100849.00
2018-09-29T21:17:28.288Z,100854.00
2018-09-29T21:19:58.261Z,100850.00
2018-09-29T21:22:28.735Z,100852.00
2018-09-29T21:24:58.735Z,100845.00
2018-09-29T21:27:29.351Z,100839.00
2018-09-29T21:29:59.901Z,100836.00
2018-09-29T21:32:30.052Z,100830.00
2018-09-29T21:35:00.173Z,100828.00
2018-09-29T21:37:30.875Z,100822.00
2018-09-29T21:40:01.466Z,100821.00
2018-09-29T21:42:39.682Z,100821.00
2018-09-29T21:45:09.735Z,100823.00
2018-09-29T21:47:40.119Z,100825.00
2018-09-29T21:50:10.186Z,100830.00
2018-09-29T21:52:40.349Z,100817.00
2018-09-29T21:55:10.537Z,100816.00
2018-09-29T21:57:40.832Z,100821.00
2018-09-29T22:00:11.096Z,100833.00
2018-09-29T22:20:43.052Z,100819.00
2018-09-29T22:23:13.234Z,100822.00
2018-09-29T22:25:43.424Z,100832.00
2018-09-29T22:28:13.819Z,100827.00
2018-09-29T22:30:43.972Z,100817.00
2018-09-29T22:33:14.150Z,100816.00
2018-09-29T22:35:44.417Z,100822.00
2018-09-29T22:38:14.432Z,100826.00
2018-09-29T22:40:44.463Z,100812.00
2018-09-29T22:43:14.645Z,100814.00
2018-09-29T22:45:45.143Z,100815.00
2018-09-29T22:48:15.711Z,100815.00
2018-09-29T22:50:45.918Z,100809.00
2018-09-29T22:53:16.077Z,100816.00
2018-09-29T22:55:46.486Z,100817.00
2018-09-29T22:58:17.466Z,100817.00
2018-09-29T23:00:47.838Z,100816.00
2018-09-29T23:03:17.868Z,100805.00
2018-09-29T23:05:48.835Z,100796.00
2018-09-29T23:08:19.105Z,100792.00
2018-09-29T23:10:49.448Z,100800.00
2018-09-29T23:13:19.428Z,100797.00
2018-09-29T23:15:50.059Z,100791.00
2018-09-29T23:18:20.484Z,100797.00
2018-09-29T23:20:50.726Z,100797.00
2018-09-29T23:23:20.981Z,100796.00
2018-09-29T23:25:51.145Z,100789.00
2018-09-29T23:28:21.463Z,100791.00
2018-09-29T23:30:52.163Z,100794.00
2018-09-29T23:33:22.251Z,100793.00
2018-09-29T23:35:52.486Z,100794.00
2018-09-29T23:38:22.606Z,100773.00
2018-09-29T23:40:52.932Z,100783.00
2018-09-29T23:43:23.050Z,100786.00
2018-09-29T23:45:53.149Z,100788.00
2018-09-29T23:48:23.559Z,100776.00
2018-09-29T23:50:53.745Z,100775.00
2018-09-29T23:53:23.944Z,100766.00
2018-09-29T23:55:54.137Z,100773.00
2018-09-29T23:58:24.442Z,100766.00
